sensor_id;sensor_type;location;lat;lon;timestamp;P1;durP1;ratioP1;P2;durP2;ratioP2
75400;SDS011;63974;47.538;18.972;2024-02-26T00:00:24;43.00;;;18.48;;
75400;SDS011;63974;47.538;18.972;2024-02-26T00:03:27;40.67;;;17.07;;
75400;SDS011;63974;47.538;18.972;2024-02-26T00:06:30;40.67;;;17.77;;
75400;SDS011;63974;47.538;18.972;2024-02-26T00:09:33;35.88;;;16.10;;
75400;SDS011;63974;47.538;18.972;2024-02-26T00:12:39;32.50;;;13.90;;
75400;SDS011;63974;47.538;18.972;2024-02-26T00:15:42;42.33;;;17.70;;
75400;SDS011;63974;47.538;18.972;2024-02-26T00:18:45;37.80;;;17.53;;
75400;SDS011;63974;47.538;18.972;2024-02-26T00:21:51;34.30;;;15.90;;
75400;SDS011;63974;47.538;18.972;2024-02-26T00:24:56;33.83;;;14.95;;
75400;SDS011;63974;47.538;18.972;2024-02-26T00:27:58;38.55;;;17.08;;
75400;SDS011;63974;47.538;18.972;2024-02-26T00:31:01;31.75;;;15.07;;
75400;SDS011;63974;47.538;18.972;2024-02-26T00:34:04;36.97;;;16.87;;
75400;SDS011;63974;47.538;18.972;2024-02-26T00:37:07;36.50;;;16.63;;
75400;SDS011;63974;47.538;18.972;2024-02-26T00:40:10;32.85;;;16.25;;
75400;SDS011;63974;47.538;18.972;2024-02-26T00:43:13;37.10;;;16.85;;
75400;SDS011;63974;47.538;18.972;2024-02-26T00:46:15;30.48;;;15.43;;
75400;SDS011;63974;47.538;18.972;2024-02-26T00:49:18;29.83;;;14.43;;
75400;SDS011;63974;47.538;18.972;2024-02-26T00:52:21;35.38;;;16.55;;
75400;SDS011;63974;47.538;18.972;2024-02-26T00:55:23;37.70;;;17.08;;
75400;SDS011;63974;47.538;18.972;2024-02-26T00:58:26;42.20;;;16.83;;
75400;SDS011;63974;47.538;18.972;2024-02-26T01:01:29;36.92;;;17.75;;
75400;SDS011;63974;47.538;18.972;2024-02-26T01:04:32;34.97;;;17.23;;
75400;SDS011;63974;47.538;18.972;2024-02-26T01:07:36;34.85;;;15.20;;
75400;SDS011;63974;47.538;18.972;2024-02-26T01:10:39;39.88;;;18.30;;
75400;SDS011;63974;47.538;18.972;2024-02-26T01:13:42;39.67;;;17.27;;
75400;SDS011;63974;47.538;18.972;2024-02-26T01:16:44;35.05;;;15.73;;
75400;SDS011;63974;47.538;18.972;2024-02-26T01:19:47;34.10;;;14.93;;
75400;SDS011;63974;47.538;18.972;2024-02-26T01:22:50;34.28;;;15.60;;
75400;SDS011;63974;47.538;18.972;2024-02-26T01:25:53;33.40;;;15.27;;
75400;SDS011;63974;47.538;18.972;2024-02-26T01:28:55;33.05;;;14.20;;
75400;SDS011;63974;47.538;18.972;2024-02-26T01:31:58;30.67;;;14.27;;
75400;SDS011;63974;47.538;18.972;2024-02-26T01:35:01;30.27;;;14.70;;
75400;SDS011;63974;47.538;18.972;2024-02-26T01:38:05;36.15;;;15.68;;
75400;SDS011;63974;47.538;18.972;2024-02-26T01:41:08;31.13;;;14.32;;
75400;SDS011;63974;47.538;18.972;2024-02-26T01:44:13;30.85;;;14.80;;
75400;SDS011;63974;47.538;18.972;2024-02-26T01:47:16;33.78;;;15.18;;
75400;SDS011;63974;47.538;18.972;2024-02-26T01:50:19;35.77;;;16.67;;
75400;SDS011;63974;47.538;18.972;2024-02-26T01:53:24;35.80;;;16.58;;
75400;SDS011;63974;47.538;18.972;2024-02-26T01:56:27;38.60;;;16.95;;
75400;SDS011;63974;47.538;18.972;2024-02-26T01:59:32;38.28;;;16.27;;
75400;SDS011;63974;47.538;18.972;2024-02-26T02:02:36;34.03;;;15.10;;
75400;SDS011;63974;47.538;18.972;2024-02-26T02:05:41;33.73;;;15.60;;
75400;SDS011;63974;47.538;18.972;2024-02-26T02:08:45;33.17;;;15.57;;
75400;SDS011;63974;47.538;18.972;2024-02-26T02:11:49;32.00;;;14.38;;
75400;SDS011;63974;47.538;18.972;2024-02-26T02:14:52;41.22;;;17.10;;
75400;SDS011;63974;47.538;18.972;2024-02-26T02:17:55;38.22;;;17.08;;
75400;SDS011;63974;47.538;18.972;2024-02-26T02:20:59;39.93;;;16.53;;
75400;SDS011;63974;47.538;18.972;2024-02-26T02:24:03;39.63;;;16.33;;
75400;SDS011;63974;47.538;18.972;2024-02-26T02:27:05;32.90;;;16.23;;
75400;SDS011;63974;47.538;18.972;2024-02-26T02:30:08;39.75;;;15.60;;
75400;SDS011;63974;47.538;18.972;2024-02-26T02:33:13;36.05;;;15.30;;
75400;SDS011;63974;47.538;18.972;2024-02-26T02:36:17;36.97;;;15.57;;
75400;SDS011;63974;47.538;18.972;2024-02-26T02:39:21;32.75;;;14.85;;
75400;SDS011;63974;47.538;18.972;2024-02-26T02:42:24;42.60;;;17.15;;
75400;SDS011;63974;47.538;18.972;2024-02-26T02:45:27;40.40;;;16.42;;
75400;SDS011;63974;47.538;18.972;2024-02-26T02:48:30;39.33;;;17.70;;
75400;SDS011;63974;47.538;18.972;2024-02-26T02:51:33;38.60;;;18.27;;
75400;SDS011;63974;47.538;18.972;2024-02-26T02:54:36;34.10;;;15.77;;
75400;SDS011;63974;47.538;18.972;2024-02-26T02:57:42;36.13;;;15.77;;
75400;SDS011;63974;47.538;18.972;2024-02-26T03:00:46;36.33;;;16.48;;
75400;SDS011;63974;47.538;18.972;2024-02-26T03:03:49;42.03;;;17.60;;
75400;SDS011;63974;47.538;18.972;2024-02-26T03:06:51;36.97;;;16.17;;
75400;SDS011;63974;47.538;18.972;2024-02-26T03:09:54;37.63;;;17.63;;
75400;SDS011;63974;47.538;18.972;2024-02-26T03:12:57;35.40;;;15.57;;
75400;SDS011;63974;47.538;18.972;2024-02-26T03:16:04;38.20;;;16.27;;
75400;SDS011;63974;47.538;18.972;2024-02-26T03:19:08;35.20;;;14.82;;
75400;SDS011;63974;47.538;18.972;2024-02-26T03:22:11;36.63;;;15.83;;
75400;SDS011;63974;47.538;18.972;2024-02-26T03:25:14;39.83;;;16.98;;
75400;SDS011;63974;47.538;18.972;2024-02-26T03:28:16;40.28;;;16.35;;
75400;SDS011;63974;47.538;18.972;2024-02-26T03:31:19;44.53;;;18.17;;
75400;SDS011;63974;47.538;18.972;2024-02-26T03:34:23;41.33;;;17.92;;
75400;SDS011;63974;47.538;18.972;2024-02-26T03:37:28;38.90;;;15.10;;
75400;SDS011;63974;47.538;18.972;2024-02-26T03:40:31;38.67;;;17.40;;
75400;SDS011;63974;47.538;18.972;2024-02-26T03:43:33;35.85;;;15.48;;
75400;SDS011;63974;47.538;18.972;2024-02-26T03:46:37;35.92;;;15.27;;
75400;SDS011;63974;47.538;18.972;2024-02-26T03:49:39;34.72;;;16.08;;
75400;SDS011;63974;47.538;18.972;2024-02-26T03:52:42;40.50;;;17.10;;
75400;SDS011;63974;47.538;18.972;2024-02-26T03:55:45;41.45;;;17.33;;
75400;SDS011;63974;47.538;18.972;2024-02-26T03:58:48;40.70;;;17.10;;
75400;SDS011;63974;47.538;18.972;2024-02-26T04:01:51;35.92;;;16.45;;
75400;SDS011;63974;47.538;18.972;2024-02-26T04:04:53;42.92;;;17.95;;
75400;SDS011;63974;47.538;18.972;2024-02-26T04:07:56;39.10;;;16.80;;
75400;SDS011;63974;47.538;18.972;2024-02-26T04:10:59;55.47;;;18.83;;
75400;SDS011;63974;47.538;18.972;2024-02-26T04:14:01;53.17;;;19.70;;
75400;SDS011;63974;47.538;18.972;2024-02-26T04:17:05;45.25;;;18.60;;
75400;SDS011;63974;47.538;18.972;2024-02-26T04:20:08;44.47;;;17.65;;
75400;SDS011;63974;47.538;18.972;2024-02-26T04:23:15;53.17;;;19.47;;
75400;SDS011;63974;47.538;18.972;2024-02-26T04:26:17;73.03;;;21.10;;
75400;SDS011;63974;47.538;18.972;2024-02-26T04:29:20;78.35;;;20.50;;
75400;SDS011;63974;47.538;18.972;2024-02-26T04:32:23;80.05;;;21.67;;
75400;SDS011;63974;47.538;18.972;2024-02-26T04:35:26;55.28;;;20.35;;
75400;SDS011;63974;47.538;18.972;2024-02-26T04:38:28;59.27;;;18.57;;
75400;SDS011;63974;47.538;18.972;2024-02-26T04:41:31;53.70;;;20.00;;
75400;SDS011;63974;47.538;18.972;2024-02-26T04:44:33;52.50;;;18.67;;
75400;SDS011;63974;47.538;18.972;2024-02-26T04:47:36;91.18;;;26.85;;
75400;SDS011;63974;47.538;18.972;2024-02-26T04:50:39;120.18;;;25.17;;
75400;SDS011;63974;47.538;18.972;2024-02-26T04:53:42;80.57;;;21.90;;
75400;SDS011;63974;47.538;18.972;2024-02-26T04:56:44;82.15;;;21.90;;
75400;SDS011;63974;47.538;18.972;2024-02-26T04:59:47;137.23;;;22.65;;
75400;SDS011;63974;47.538;18.972;2024-02-26T05:02:52;86.25;;;19.85;;
75400;SDS011;63974;47.538;18.972;2024-02-26T05:05:55;65.15;;;18.50;;
75400;SDS011;63974;47.538;18.972;2024-02-26T05:09:00;74.00;;;18.40;;
75400;SDS011;63974;47.538;18.972;2024-02-26T05:12:03;69.43;;;18.17;;
75400;SDS011;63974;47.538;18.972;2024-02-26T05:15:06;65.13;;;18.27;;
75400;SDS011;63974;47.538;18.972;2024-02-26T05:18:09;63.90;;;17.67;;
75400;SDS011;63974;47.538;18.972;2024-02-26T05:21:12;78.63;;;18.73;;
75400;SDS011;63974;47.538;18.972;2024-02-26T05:24:14;65.23;;;17.67;;
75400;SDS011;63974;47.538;18.972;2024-02-26T05:27:20;57.45;;;17.48;;
75400;SDS011;63974;47.538;18.972;2024-02-26T05:30:22;64.93;;;18.02;;
75400;SDS011;63974;47.538;18.972;2024-02-26T05:33:25;51.60;;;18.05;;
75400;SDS011;63974;47.538;18.972;2024-02-26T05:36:28;51.85;;;18.15;;
75400;SDS011;63974;47.538;18.972;2024-02-26T05:39:35;45.83;;;15.50;;
75400;SDS011;63974;47.538;18.972;2024-02-26T05:42:38;50.92;;;17.23;;
75400;SDS011;63974;47.538;18.972;2024-02-26T05:45:41;39.58;;;16.85;;
75400;SDS011;63974;47.538;18.972;2024-02-26T05:48:47;45.35;;;16.15;;
75400;SDS011;63974;47.538;18.972;2024-02-26T05:51:51;53.95;;;18.00;;
75400;SDS011;63974;47.538;18.972;2024-02-26T05:54:54;62.17;;;18.77;;
75400;SDS011;63974;47.538;18.972;2024-02-26T05:57:57;45.20;;;18.30;;
75400;SDS011;63974;47.538;18.972;2024-02-26T06:00:59;44.35;;;17.15;;
75400;SDS011;63974;47.538;18.972;2024-02-26T06:04:02;44.13;;;18.63;;
75400;SDS011;63974;47.538;18.972;2024-02-26T06:07:05;51.67;;;18.48;;
75400;SDS011;63974;47.538;18.972;2024-02-26T06:10:09;52.57;;;17.87;;
75400;SDS011;63974;47.538;18.972;2024-02-26T06:13:12;46.50;;;18.17;;
75400;SDS011;63974;47.538;18.972;2024-02-26T06:16:15;46.22;;;18.83;;
75400;SDS011;63974;47.538;18.972;2024-02-26T06:19:17;45.83;;;18.95;;
75400;SDS011;63974;47.538;18.972;2024-02-26T06:22:20;39.42;;;17.27;;
75400;SDS011;63974;47.538;18.972;2024-02-26T06:25:23;38.53;;;16.57;;
75400;SDS011;63974;47.538;18.972;2024-02-26T06:28:29;38.53;;;17.67;;
75400;SDS011;63974;47.538;18.972;2024-02-26T06:31:34;38.03;;;17.48;;
75400;SDS011;63974;47.538;18.972;2024-02-26T06:34:37;37.75;;;16.73;;
75400;SDS011;63974;47.538;18.972;2024-02-26T06:37:42;42.83;;;17.55;;
75400;SDS011;63974;47.538;18.972;2024-02-26T06:40:45;41.43;;;18.87;;
75400;SDS011;63974;47.538;18.972;2024-02-26T06:43:50;52.35;;;20.73;;
75400;SDS011;63974;47.538;18.972;2024-02-26T06:47:00;50.35;;;21.52;;
75400;SDS011;63974;47.538;18.972;2024-02-26T06:50:04;49.15;;;21.80;;
75400;SDS011;63974;47.538;18.972;2024-02-26T06:53:07;39.45;;;19.33;;
75400;SDS011;63974;47.538;18.972;2024-02-26T06:56:12;42.73;;;18.23;;
75400;SDS011;63974;47.538;18.972;2024-02-26T06:59:14;31.05;;;15.32;;
75400;SDS011;63974;47.538;18.972;2024-02-26T07:02:17;27.05;;;13.32;;
75400;SDS011;63974;47.538;18.972;2024-02-26T07:05:20;33.67;;;14.82;;
75400;SDS011;63974;47.538;18.972;2024-02-26T07:08:25;33.42;;;15.75;;
75400;SDS011;63974;47.538;18.972;2024-02-26T07:11:27;30.60;;;14.07;;
75400;SDS011;63974;47.538;18.972;2024-02-26T07:14:30;32.80;;;15.32;;
75400;SDS011;63974;47.538;18.972;2024-02-26T07:17:35;35.25;;;17.75;;
75400;SDS011;63974;47.538;18.972;2024-02-26T07:20:38;33.38;;;17.73;;
75400;SDS011;63974;47.538;18.972;2024-02-26T07:23:42;35.00;;;17.98;;
75400;SDS011;63974;47.538;18.972;2024-02-26T07:26:45;31.77;;;14.93;;
75400;SDS011;63974;47.538;18.972;2024-02-26T07:29:48;33.08;;;16.95;;
75400;SDS011;63974;47.538;18.972;2024-02-26T07:32:50;30.52;;;14.50;;
75400;SDS011;63974;47.538;18.972;2024-02-26T07:35:54;28.50;;;14.20;;
75400;SDS011;63974;47.538;18.972;2024-02-26T07:38:56;24.73;;;12.48;;
75400;SDS011;63974;47.538;18.972;2024-02-26T07:41:59;24.93;;;12.03;;
75400;SDS011;63974;47.538;18.972;2024-02-26T07:45:02;24.30;;;12.02;;
75400;SDS011;63974;47.538;18.972;2024-02-26T07:48:06;22.42;;;11.50;;
75400;SDS011;63974;47.538;18.972;2024-02-26T07:51:12;22.85;;;11.07;;
75400;SDS011;63974;47.538;18.972;2024-02-26T07:54:18;20.38;;;11.07;;
75400;SDS011;63974;47.538;18.972;2024-02-26T07:57:24;24.43;;;11.97;;
75400;SDS011;63974;47.538;18.972;2024-02-26T08:00:27;21.90;;;11.77;;
75400;SDS011;63974;47.538;18.972;2024-02-26T08:03:30;25.70;;;13.30;;
75400;SDS011;63974;47.538;18.972;2024-02-26T08:06:33;25.20;;;12.38;;
75400;SDS011;63974;47.538;18.972;2024-02-26T08:09:39;23.80;;;12.55;;
75400;SDS011;63974;47.538;18.972;2024-02-26T08:12:42;23.87;;;11.93;;
75400;SDS011;63974;47.538;18.972;2024-02-26T08:15:45;25.30;;;12.68;;
75400;SDS011;63974;47.538;18.972;2024-02-26T08:18:47;28.58;;;12.98;;
75400;SDS011;63974;47.538;18.972;2024-02-26T08:21:50;25.05;;;13.40;;
75400;SDS011;63974;47.538;18.972;2024-02-26T08:24:53;23.95;;;13.05;;
75400;SDS011;63974;47.538;18.972;2024-02-26T08:27:56;22.23;;;12.03;;
75400;SDS011;63974;47.538;18.972;2024-02-26T08:30:58;23.52;;;11.73;;
75400;SDS011;63974;47.538;18.972;2024-02-26T08:34:01;24.33;;;12.13;;
75400;SDS011;63974;47.538;18.972;2024-02-26T08:37:05;24.73;;;12.30;;
75400;SDS011;63974;47.538;18.972;2024-02-26T08:40:08;21.38;;;11.35;;
75400;SDS011;63974;47.538;18.972;2024-02-26T08:43:13;22.07;;;11.97;;
75400;SDS011;63974;47.538;18.972;2024-02-26T08:46:16;24.25;;;12.65;;
75400;SDS011;63974;47.538;18.972;2024-02-26T08:49:19;21.67;;;10.95;;
75400;SDS011;63974;47.538;18.972;2024-02-26T08:52:25;19.50;;;11.23;;
75400;SDS011;63974;47.538;18.972;2024-02-26T08:55:31;20.15;;;11.52;;
75400;SDS011;63974;47.538;18.972;2024-02-26T08:58:34;17.97;;;9.73;;
75400;SDS011;63974;47.538;18.972;2024-02-26T09:01:38;16.92;;;9.98;;
75400;SDS011;63974;47.538;18.972;2024-02-26T09:04:40;18.10;;;10.10;;
75400;SDS011;63974;47.538;18.972;2024-02-26T09:07:43;15.15;;;9.07;;
75400;SDS011;63974;47.538;18.972;2024-02-26T09:10:46;14.75;;;8.95;;
75400;SDS011;63974;47.538;18.972;2024-02-26T09:13:49;14.13;;;9.87;;
75400;SDS011;63974;47.538;18.972;2024-02-26T09:16:52;17.55;;;9.70;;
75400;SDS011;63974;47.538;18.972;2024-02-26T09:19:55;16.17;;;9.63;;
75400;SDS011;63974;47.538;18.972;2024-02-26T09:22:58;16.58;;;10.05;;
75400;SDS011;63974;47.538;18.972;2024-02-26T09:26:01;16.40;;;9.10;;
75400;SDS011;63974;47.538;18.972;2024-02-26T09:29:04;13.10;;;7.20;;
75400;SDS011;63974;47.538;18.972;2024-02-26T09:32:06;14.13;;;8.27;;
75400;SDS011;63974;47.538;18.972;2024-02-26T09:35:09;15.98;;;7.82;;
75400;SDS011;63974;47.538;18.972;2024-02-26T09:38:12;15.35;;;9.07;;
75400;SDS011;63974;47.538;18.972;2024-02-26T09:41:14;15.40;;;8.38;;
75400;SDS011;63974;47.538;18.972;2024-02-26T09:44:19;13.70;;;8.37;;
75400;SDS011;63974;47.538;18.972;2024-02-26T09:47:25;12.18;;;6.75;;
75400;SDS011;63974;47.538;18.972;2024-02-26T09:50:29;12.00;;;7.45;;
75400;SDS011;63974;47.538;18.972;2024-02-26T09:53:32;16.20;;;6.95;;
75400;SDS011;63974;47.538;18.972;2024-02-26T09:56:39;13.25;;;7.65;;
75400;SDS011;63974;47.538;18.972;2024-02-26T09:59:59;11.13;;;5.97;;
75400;SDS011;63974;47.538;18.972;2024-02-26T10:03:09;10.23;;;6.18;;
75400;SDS011;63974;47.538;18.972;2024-02-26T10:06:17;10.77;;;6.90;;
75400;SDS011;63974;47.538;18.972;2024-02-26T10:09:20;13.18;;;6.60;;
75400;SDS011;63974;47.538;18.972;2024-02-26T10:12:24;9.45;;;6.13;;
75400;SDS011;63974;47.538;18.972;2024-02-26T10:15:30;10.60;;;5.90;;
75400;SDS011;63974;47.538;18.972;2024-02-26T10:18:46;12.70;;;6.07;;
75400;SDS011;63974;47.538;18.972;2024-02-26T10:22:01;10.10;;;5.22;;
75400;SDS011;63974;47.538;18.972;2024-02-26T10:25:05;11.02;;;6.72;;
75400;SDS011;63974;47.538;18.972;2024-02-26T10:28:10;9.75;;;6.45;;
75400;SDS011;63974;47.538;18.972;2024-02-26T10:31:16;9.17;;;5.80;;
75400;SDS011;63974;47.538;18.972;2024-02-26T10:34:19;11.35;;;6.47;;
75400;SDS011;63974;47.538;18.972;2024-02-26T10:37:23;11.15;;;6.28;;
75400;SDS011;63974;47.538;18.972;2024-02-26T10:40:31;8.48;;;5.78;;
75400;SDS011;63974;47.538;18.972;2024-02-26T10:43:33;9.77;;;6.43;;
75400;SDS011;63974;47.538;18.972;2024-02-26T10:46:36;13.03;;;7.07;;
75400;SDS011;63974;47.538;18.972;2024-02-26T10:49:44;10.32;;;7.30;;
75400;SDS011;63974;47.538;18.972;2024-02-26T10:52:48;12.57;;;7.20;;
75400;SDS011;63974;47.538;18.972;2024-02-26T10:55:55;11.85;;;7.50;;
75400;SDS011;63974;47.538;18.972;2024-02-26T10:59:01;12.77;;;8.00;;
75400;SDS011;63974;47.538;18.972;2024-02-26T11:02:04;13.70;;;7.07;;
75400;SDS011;63974;47.538;18.972;2024-02-26T11:05:09;15.30;;;8.50;;
75400;SDS011;63974;47.538;18.972;2024-02-26T11:08:13;13.65;;;8.48;;
75400;SDS011;63974;47.538;18.972;2024-02-26T11:11:20;14.10;;;8.85;;
75400;SDS011;63974;47.538;18.972;2024-02-26T11:14:24;17.13;;;10.15;;
75400;SDS011;63974;47.538;18.972;2024-02-26T11:17:28;15.23;;;8.83;;
75400;SDS011;63974;47.538;18.972;2024-02-26T11:20:34;15.65;;;8.98;;
75400;SDS011;63974;47.538;18.972;2024-02-26T11:23:42;13.75;;;8.98;;
75400;SDS011;63974;47.538;18.972;2024-02-26T11:26:46;13.95;;;8.30;;
75400;SDS011;63974;47.538;18.972;2024-02-26T11:29:52;13.75;;;8.27;;
75400;SDS011;63974;47.538;18.972;2024-02-26T11:32:57;13.77;;;9.27;;
75400;SDS011;63974;47.538;18.972;2024-02-26T11:36:01;14.50;;;9.00;;
75400;SDS011;63974;47.538;18.972;2024-02-26T11:39:11;16.40;;;8.88;;
75400;SDS011;63974;47.538;18.972;2024-02-26T11:42:23;15.23;;;8.90;;
75400;SDS011;63974;47.538;18.972;2024-02-26T11:48:48;12.97;;;7.67;;
75400;SDS011;63974;47.538;18.972;2024-02-26T11:51:52;11.65;;;8.10;;
75400;SDS011;63974;47.538;18.972;2024-02-26T11:55:06;10.07;;;6.82;;
75400;SDS011;63974;47.538;18.972;2024-02-26T11:58:11;10.25;;;6.22;;
75400;SDS011;63974;47.538;18.972;2024-02-26T12:04:50;7.23;;;4.43;;
75400;SDS011;63974;47.538;18.972;2024-02-26T12:07:59;5.13;;;4.25;;
75400;SDS011;63974;47.538;18.972;2024-02-26T12:11:16;8.18;;;4.63;;
75400;SDS011;63974;47.538;18.972;2024-02-26T12:14:24;6.88;;;4.22;;
75400;SDS011;63974;47.538;18.972;2024-02-26T12:17:28;6.22;;;3.83;;
75400;SDS011;63974;47.538;18.972;2024-02-26T12:20:31;9.00;;;3.80;;
75400;SDS011;63974;47.538;18.972;2024-02-26T12:23:34;5.38;;;3.92;;
75400;SDS011;63974;47.538;18.972;2024-02-26T12:26:37;7.78;;;3.88;;
75400;SDS011;63974;47.538;18.972;2024-02-26T12:29:39;8.38;;;3.50;;
75400;SDS011;63974;47.538;18.972;2024-02-26T12:32:42;6.05;;;3.65;;
75400;SDS011;63974;47.538;18.972;2024-02-26T12:35:45;6.60;;;3.37;;
75400;SDS011;63974;47.538;18.972;2024-02-26T12:38:50;5.20;;;3.45;;
75400;SDS011;63974;47.538;18.972;2024-02-26T12:41:53;5.75;;;3.80;;
75400;SDS011;63974;47.538;18.972;2024-02-26T12:44:57;5.95;;;3.63;;
75400;SDS011;63974;47.538;18.972;2024-02-26T12:47:59;5.28;;;3.13;;
75400;SDS011;63974;47.538;18.972;2024-02-26T12:51:03;4.30;;;3.00;;
75400;SDS011;63974;47.538;18.972;2024-02-26T12:54:06;4.80;;;3.25;;
75400;SDS011;63974;47.538;18.972;2024-02-26T12:57:09;4.95;;;2.00;;
75400;SDS011;63974;47.538;18.972;2024-02-26T13:00:14;5.30;;;2.60;;
75400;SDS011;63974;47.538;18.972;2024-02-26T13:03:21;5.72;;;3.20;;
75400;SDS011;63974;47.538;18.972;2024-02-26T13:06:25;5.13;;;2.97;;
75400;SDS011;63974;47.538;18.972;2024-02-26T13:09:28;5.07;;;2.90;;
75400;SDS011;63974;47.538;18.972;2024-02-26T13:12:37;4.07;;;2.60;;
75400;SDS011;63974;47.538;18.972;2024-02-26T13:15:45;5.22;;;3.20;;
75400;SDS011;63974;47.538;18.972;2024-02-26T13:18:48;3.63;;;2.58;;
75400;SDS011;63974;47.538;18.972;2024-02-26T13:21:51;5.87;;;2.90;;
75400;SDS011;63974;47.538;18.972;2024-02-26T13:24:54;5.57;;;2.95;;
75400;SDS011;63974;47.538;18.972;2024-02-26T13:28:05;5.68;;;3.45;;
75400;SDS011;63974;47.538;18.972;2024-02-26T13:31:10;3.72;;;2.72;;
75400;SDS011;63974;47.538;18.972;2024-02-26T13:34:25;4.05;;;1.92;;
75400;SDS011;63974;47.538;18.972;2024-02-26T13:37:29;2.90;;;1.60;;
75400;SDS011;63974;47.538;18.972;2024-02-26T13:40:32;2.67;;;1.80;;
75400;SDS011;63974;47.538;18.972;2024-02-26T13:43:35;4.00;;;1.67;;
75400;SDS011;63974;47.538;18.972;2024-02-26T13:46:38;3.05;;;2.25;;
75400;SDS011;63974;47.538;18.972;2024-02-26T13:49:40;3.50;;;1.50;;
75400;SDS011;63974;47.538;18.972;2024-02-26T13:52:43;4.40;;;2.17;;
75400;SDS011;63974;47.538;18.972;2024-02-26T13:55:46;4.80;;;2.30;;
75400;SDS011;63974;47.538;18.972;2024-02-26T13:58:49;5.05;;;2.70;;
75400;SDS011;63974;47.538;18.972;2024-02-26T14:01:52;3.47;;;2.22;;
75400;SDS011;63974;47.538;18.972;2024-02-26T14:04:57;4.22;;;2.70;;
75400;SDS011;63974;47.538;18.972;2024-02-26T14:08:00;4.40;;;2.90;;
75400;SDS011;63974;47.538;18.972;2024-02-26T14:11:03;4.10;;;2.90;;
75400;SDS011;63974;47.538;18.972;2024-02-26T14:14:06;5.55;;;2.97;;
75400;SDS011;63974;47.538;18.972;2024-02-26T14:17:09;5.80;;;2.85;;
75400;SDS011;63974;47.538;18.972;2024-02-26T14:20:12;5.60;;;3.10;;
75400;SDS011;63974;47.538;18.972;2024-02-26T14:23:15;5.67;;;3.03;;
75400;SDS011;63974;47.538;18.972;2024-02-26T14:26:18;3.72;;;2.50;;
75400;SDS011;63974;47.538;18.972;2024-02-26T14:29:21;4.15;;;2.78;;
75400;SDS011;63974;47.538;18.972;2024-02-26T14:32:23;4.93;;;2.13;;
75400;SDS011;63974;47.538;18.972;2024-02-26T14:35:26;4.32;;;2.38;;
75400;SDS011;63974;47.538;18.972;2024-02-26T14:38:29;3.33;;;2.23;;
75400;SDS011;63974;47.538;18.972;2024-02-26T14:41:32;3.75;;;2.42;;
75400;SDS011;63974;47.538;18.972;2024-02-26T14:44:35;6.47;;;3.15;;
75400;SDS011;63974;47.538;18.972;2024-02-26T14:47:38;7.47;;;3.83;;
75400;SDS011;63974;47.538;18.972;2024-02-26T14:50:46;4.40;;;3.33;;
75400;SDS011;63974;47.538;18.972;2024-02-26T14:53:49;5.30;;;3.63;;
75400;SDS011;63974;47.538;18.972;2024-02-26T14:56:52;5.65;;;3.42;;
75400;SDS011;63974;47.538;18.972;2024-02-26T14:59:55;8.13;;;5.03;;
75400;SDS011;63974;47.538;18.972;2024-02-26T15:02:57;10.95;;;5.85;;
75400;SDS011;63974;47.538;18.972;2024-02-26T15:06:00;16.00;;;8.00;;
75400;SDS011;63974;47.538;18.972;2024-02-26T15:09:03;17.07;;;7.97;;
75400;SDS011;63974;47.538;18.972;2024-02-26T15:12:06;18.88;;;8.05;;
75400;SDS011;63974;47.538;18.972;2024-02-26T15:15:10;15.20;;;7.18;;
75400;SDS011;63974;47.538;18.972;2024-02-26T15:18:13;12.40;;;6.68;;
75400;SDS011;63974;47.538;18.972;2024-02-26T15:21:18;11.55;;;6.38;;
75400;SDS011;63974;47.538;18.972;2024-02-26T15:24:21;13.20;;;6.93;;
75400;SDS011;63974;47.538;18.972;2024-02-26T15:27:24;8.98;;;4.63;;
75400;SDS011;63974;47.538;18.972;2024-02-26T15:30:27;6.20;;;3.30;;
75400;SDS011;63974;47.538;18.972;2024-02-26T15:33:31;5.05;;;3.90;;
75400;SDS011;63974;47.538;18.972;2024-02-26T15:36:34;6.10;;;3.80;;
75400;SDS011;63974;47.538;18.972;2024-02-26T15:39:38;8.03;;;3.87;;
75400;SDS011;63974;47.538;18.972;2024-02-26T15:42:40;7.18;;;4.35;;
75400;SDS011;63974;47.538;18.972;2024-02-26T15:45:43;7.63;;;4.60;;
75400;SDS011;63974;47.538;18.972;2024-02-26T15:48:46;6.82;;;4.30;;
75400;SDS011;63974;47.538;18.972;2024-02-26T15:51:50;7.35;;;5.03;;
75400;SDS011;63974;47.538;18.972;2024-02-26T15:54:52;8.13;;;4.73;;
75400;SDS011;63974;47.538;18.972;2024-02-26T15:57:55;8.82;;;4.82;;
75400;SDS011;63974;47.538;18.972;2024-02-26T16:00:58;9.73;;;4.40;;
75400;SDS011;63974;47.538;18.972;2024-02-26T16:04:13;8.48;;;4.38;;
75400;SDS011;63974;47.538;18.972;2024-02-26T16:07:18;8.07;;;5.32;;
75400;SDS011;63974;47.538;18.972;2024-02-26T16:10:28;13.07;;;6.83;;
75400;SDS011;63974;47.538;18.972;2024-02-26T16:13:32;12.63;;;7.07;;
75400;SDS011;63974;47.538;18.972;2024-02-26T16:16:34;13.27;;;7.78;;
75400;SDS011;63974;47.538;18.972;2024-02-26T16:19:38;12.60;;;7.63;;
75400;SDS011;63974;47.538;18.972;2024-02-26T16:22:41;17.63;;;9.10;;
75400;SDS011;63974;47.538;18.972;2024-02-26T16:25:44;20.43;;;10.67;;
75400;SDS011;63974;47.538;18.972;2024-02-26T16:28:50;23.65;;;13.23;;
75400;SDS011;63974;47.538;18.972;2024-02-26T16:31:53;27.83;;;14.88;;
75400;SDS011;63974;47.538;18.972;2024-02-26T16:34:57;19.25;;;12.68;;
75400;SDS011;63974;47.538;18.972;2024-02-26T16:38:01;21.85;;;12.90;;
75400;SDS011;63974;47.538;18.972;2024-02-26T16:41:04;13.00;;;7.47;;
75400;SDS011;63974;47.538;18.972;2024-02-26T16:44:07;12.95;;;7.93;;
75400;SDS011;63974;47.538;18.972;2024-02-26T16:47:10;14.20;;;7.47;;
75400;SDS011;63974;47.538;18.972;2024-02-26T16:50:13;12.50;;;7.82;;
75400;SDS011;63974;47.538;18.972;2024-02-26T16:53:15;16.55;;;9.27;;
75400;SDS011;63974;47.538;18.972;2024-02-26T16:56:18;13.43;;;7.93;;
75400;SDS011;63974;47.538;18.972;2024-02-26T16:59:21;14.57;;;9.13;;
75400;SDS011;63974;47.538;18.972;2024-02-26T17:02:29;13.50;;;8.98;;
75400;SDS011;63974;47.538;18.972;2024-02-26T17:05:31;13.25;;;8.90;;
75400;SDS011;63974;47.538;18.972;2024-02-26T17:08:34;13.82;;;9.10;;
75400;SDS011;63974;47.538;18.972;2024-02-26T17:11:38;20.83;;;10.73;;
75400;SDS011;63974;47.538;18.972;2024-02-26T17:14:41;16.20;;;10.18;;
75400;SDS011;63974;47.538;18.972;2024-02-26T17:17:43;24.10;;;13.32;;
75400;SDS011;63974;47.538;18.972;2024-02-26T17:20:47;23.73;;;12.25;;
75400;SDS011;63974;47.538;18.972;2024-02-26T17:23:50;18.15;;;11.23;;
75400;SDS011;63974;47.538;18.972;2024-02-26T17:26:53;22.17;;;11.87;;
75400;SDS011;63974;47.538;18.972;2024-02-26T17:29:56;19.63;;;12.63;;
75400;SDS011;63974;47.538;18.972;2024-02-26T17:32:59;16.75;;;10.82;;
75400;SDS011;63974;47.538;18.972;2024-02-26T17:36:02;20.15;;;10.38;;
75400;SDS011;63974;47.538;18.972;2024-02-26T17:39:05;19.45;;;11.18;;
75400;SDS011;63974;47.538;18.972;2024-02-26T17:42:08;17.77;;;11.07;;
75400;SDS011;63974;47.538;18.972;2024-02-26T17:45:11;20.17;;;10.60;;
75400;SDS011;63974;47.538;18.972;2024-02-26T17:48:14;24.88;;;12.35;;
75400;SDS011;63974;47.538;18.972;2024-02-26T17:51:17;17.75;;;11.15;;
75400;SDS011;63974;47.538;18.972;2024-02-26T17:54:20;22.92;;;11.85;;